Terminal Aerodrome Forecast
Issued by NWS

Home | Current Version | Previous Version | Graphics & Text | Print | Product List | Glossary On
Versions: 1 2 3 4 5 6 7 8 9 10 11 12 13 14 15 16 17 18 19 20 21 22 23 24 25 26
000
FTUS43 KTOP 152300 CCA
TAFMHK
TAF COR
KMHK 152359Z 1600/1624 12012KT P6SM OVC027
      TEMPO 1600/1602 3SM FU
     FM160600 12006KT 4SM BR FEW008 OVC018 PROB30 1612/1616 -TSRA
      BKN021CB
     FM161600 14010G18KT P6SM SCT040=

USA.gov is the U.S. government's official web portal to all federal, state and local government web resources and services.